Spirit Of Baltimore — WDE9403 — position and weather

sailwx.info

Track history (hours):
 
Tides and Currents Weather Stations Pressure Air Temp Water Temp Dewpoint Dewpoint Depression Visibility Wind Speed Wind Dir Waves Ship Positions

Spirit Of Baltimore

Owner: Spirit Cruises, LLC, Baltimore, MD. More information available from US FCC via Universal Licensing System and Coast Guard Vessel Documentation Center.

Last reported at 2018-Feb-18 03:02 UTC. Time now 2018-Feb-21 02:02 UTC.
Position N 39°17' W 076°37'.

Length 40 m; draft 1.6 m.

Type: Passenger vessel. MMSI: 367416810.

Date/timePositionNaut miles runAvg speedWind from/ knotsBaromVisibWave heightAir tempDewpointWater temp
2018-Feb-18 03:02N 39°17' W 076°37'0 0.0
2018-Feb-18 03:00N 39°17' W 076°37'1 1.7
2018-Feb-18 02:30N 39°17' W 076°36'1 2.5
2018-Feb-18 02:00N 39°15' W 076°36'3 5.3
2018-Feb-18 01:30N 39°15' W 076°33'1 1.9
2018-Feb-18 01:00N 39°14' W 076°32'4 7.0
2018-Feb-18 00:30N 39°16' W 076°35'1 2.9
2018-Feb-18 00:00N 39°17' W 076°37'0 0.1
2018-Feb-17 23:30N 39°17' W 076°37'0 0.1
2018-Feb-17 23:00N 39°17' W 076°37'0 0.0
2018-Feb-17 22:30N 39°17' W 076°37'  
2018-Feb-15 03:05N 39°17' W 076°37'0 0.0
2018-Feb-15 03:00N 39°17' W 076°37'1 2.2
2018-Feb-15 02:30N 39°17' W 076°35'1 2.0
2018-Feb-15 02:00N 39°16' W 076°36'2 4.8
2018-Feb-15 01:30N 39°15' W 076°33'2 3.3
2018-Feb-15 01:00N 39°13' W 076°32'4 7.4
2018-Feb-15 00:30N 39°16' W 076°35'2 3.4
2018-Feb-15 00:00N 39°17' W 076°37'0 0.0
2018-Feb-14 23:30N 39°17' W 076°37'0 0.0
2018-Feb-14 23:00N 39°17' W 076°37'  
2018-Feb-11 19:05N 39°17' W 076°37'0 0.0
2018-Feb-11 19:00N 39°17' W 076°37'2 4.5
2018-Feb-11 18:31N 39°16' W 076°34'2 3.6
2018-Feb-11 18:00N 39°15' W 076°32'2 4.2
2018-Feb-11 17:30N 39°16' W 076°35'2 0.1
2018-Feb-11 03:05N 39°17' W 076°37'0 0.0
2018-Feb-11 03:00N 39°17' W 076°37'1 1.7
2018-Feb-11 02:30N 39°17' W 076°36'2 3.8
2018-Feb-11 02:00N 39°15' W 076°34'3 5.4
2018-Feb-11 01:30N 39°13' W 076°32'2 3.7
2018-Feb-11 01:00N 39°15' W 076°33'2 3.0
2018-Feb-11 00:30N 39°16' W 076°35'  
Track history (hours):
 
Tides and Currents Weather Stations Pressure Air Temp Water Temp Dewpoint Dewpoint Depression Visibility Wind Speed Wind Dir Waves Ship Positions

Spirit Of Baltimore

Owner: Spirit Cruises, LLC, Baltimore, MD. More information available from US FCC via Universal Licensing System and Coast Guard Vessel Documentation Center.

Last reported at 2018-Feb-18 03:02 UTC. Time now 2018-Feb-21 02:02 UTC.
Position N 39°17' W 076°37'.

Length 40 m; draft 1.6 m.

Type: Passenger vessel. MMSI: 367416810.

Date/timePositionNaut miles runAvg speedWind from/ knotsBaromVisibWave heightAir tempDewpointWater temp
2018-Feb-18 03:02N 39°17' W 076°37'0 0.0
2018-Feb-18 03:00N 39°17' W 076°37'1 1.7
2018-Feb-18 02:30N 39°17' W 076°36'1 2.5
2018-Feb-18 02:00N 39°15' W 076°36'3 5.3
2018-Feb-18 01:30N 39°15' W 076°33'1 1.9
2018-Feb-18 01:00N 39°14' W 076°32'4 7.0
2018-Feb-18 00:30N 39°16' W 076°35'1 2.9
2018-Feb-18 00:00N 39°17' W 076°37'0 0.1
2018-Feb-17 23:30N 39°17' W 076°37'0 0.1
2018-Feb-17 23:00N 39°17' W 076°37'0 0.0
2018-Feb-17 22:30N 39°17' W 076°37'  
2018-Feb-15 03:05N 39°17' W 076°37'0 0.0
2018-Feb-15 03:00N 39°17' W 076°37'1 2.2
2018-Feb-15 02:30N 39°17' W 076°35'1 2.0
2018-Feb-15 02:00N 39°16' W 076°36'2 4.8
2018-Feb-15 01:30N 39°15' W 076°33'2 3.3
2018-Feb-15 01:00N 39°13' W 076°32'4 7.4
2018-Feb-15 00:30N 39°16' W 076°35'2 3.4
2018-Feb-15 00:00N 39°17' W 076°37'0 0.0
2018-Feb-14 23:30N 39°17' W 076°37'0 0.0
2018-Feb-14 23:00N 39°17' W 076°37'  
2018-Feb-11 19:05N 39°17' W 076°37'0 0.0
2018-Feb-11 19:00N 39°17' W 076°37'2 4.5
2018-Feb-11 18:31N 39°16' W 076°34'2 3.6
2018-Feb-11 18:00N 39°15' W 076°32'2 4.2
2018-Feb-11 17:30N 39°16' W 076°35'2 0.1
2018-Feb-11 03:05N 39°17' W 076°37'0 0.0
2018-Feb-11 03:00N 39°17' W 076°37'1 1.7
2018-Feb-11 02:30N 39°17' W 076°36'2 3.8
2018-Feb-11 02:00N 39°15' W 076°34'3 5.4
2018-Feb-11 01:30N 39°13' W 076°32'2 3.7
2018-Feb-11 01:00N 39°15' W 076°33'2 3.0
2018-Feb-11 00:30N 39°16' W 076°35'  

Dump ship's entire track history